Leipsic, Delaware
Current Conditions -  °F | °C
As of 11:58 PM on Tuesday 25 Nov 2014 (Local Time) from KDOV Reporting Station
Clear Clear  
Wind Chill: 46°   Ceiling: Unl
Heat Index: 46°   Visibility: 10mi
Dew Point: 40°   Wind: 1mph
Humidity: 78%   Direction: 110°ESE
Pressure: 30.14"   Gusts: NA
Location:  39.1624°N, 75.5199°W
Report Text: KDOV 260458Z AUTO 11001KT 10SM CLR 08/04 A3014 RMK AO2 SLP210 T00790042 401820076
Loading
Personal Weather Stations






























Interactive Weather Map New forecast layout! Learn more

10-Day Weather Forecast

Advertisements
Track Severe Weather on mobile